createdAt,value
2019-05-03T00:00:16.755Z,8.27
2019-05-03T00:02:48.073Z,7.30
2019-05-03T00:05:22.108Z,6.13
2019-05-03T00:07:53.477Z,5.60
2019-05-03T00:10:23.255Z,5.60
2019-05-03T00:12:52.891Z,5.10
2019-05-03T00:15:32.228Z,5.50
2019-05-03T00:18:02.385Z,5.17
2019-05-03T00:20:32.649Z,5.23
2019-05-03T00:23:02.932Z,4.77
2019-05-03T00:25:32.766Z,4.97
2019-05-03T00:28:02.235Z,4.63
2019-05-03T00:30:32.107Z,4.53
2019-05-03T00:33:02.865Z,4.23
2019-05-03T00:35:34.207Z,4.07
2019-05-03T00:38:05.326Z,4.40
2019-05-03T00:40:34.802Z,3.70
2019-05-03T00:43:04.281Z,4.07
2019-05-03T00:45:33.744Z,3.77
2019-05-03T00:48:03.238Z,3.60
2019-05-03T00:50:32.724Z,4.23
2019-05-03T00:53:02.487Z,4.00
2019-05-03T00:55:32.815Z,4.33
2019-05-03T00:58:02.640Z,4.00
2019-05-03T01:00:32.707Z,4.10
2019-05-03T01:03:02.393Z,4.10
2019-05-03T01:05:33.094Z,4.40
2019-05-03T01:08:03.101Z,3.97
2019-05-03T01:10:33.148Z,4.07
2019-05-03T01:13:02.903Z,4.30
2019-05-03T01:15:34.098Z,5.00
2019-05-03T01:18:05.232Z,4.77
2019-05-03T01:20:34.785Z,5.03
2019-05-03T01:23:04.365Z,5.50
2019-05-03T01:25:35.541Z,5.50
2019-05-03T01:28:05.620Z,5.57
2019-05-03T01:30:35.139Z,6.47
2019-05-03T01:33:04.779Z,6.00
2019-05-03T01:35:34.348Z,6.47
2019-05-03T01:38:03.831Z,5.73
2019-05-03T01:40:33.359Z,5.80
2019-05-03T01:43:02.892Z,6.50
2019-05-03T01:45:32.402Z,6.50
2019-05-03T01:48:04.278Z,6.93
2019-05-03T01:50:36.223Z,6.77
2019-05-03T01:53:16.379Z,6.80
2019-05-03T01:55:52.302Z,6.90
2019-05-03T01:58:24.102Z,7.03
2019-05-03T02:00:55.835Z,6.30
2019-05-03T02:03:45.173Z,7.03
2019-05-03T02:06:14.728Z,7.27
2019-05-03T02:08:44.198Z,7.33
2019-05-03T02:11:13.663Z,7.77
2019-05-03T02:13:43.138Z,7.57
2019-05-03T02:16:12.650Z,7.90
2019-05-03T02:18:42.471Z,7.67
2019-05-03T02:21:12.340Z,8.03
2019-05-03T02:23:42.540Z,7.53
2019-05-03T02:26:12.253Z,7.50
2019-05-03T02:28:42.133Z,8.17
2019-05-03T02:31:13.767Z,7.43
2019-05-03T02:33:43.498Z,8.10
2019-05-03T02:36:13.724Z,8.03
2019-05-03T02:38:43.518Z,8.40
2019-05-03T02:41:13.640Z,8.00
2019-05-03T02:43:47.593Z,7.80
2019-05-03T02:46:18.733Z,7.83
2019-05-03T02:49:01.962Z,7.37
2019-05-03T02:51:31.426Z,7.70
2019-05-03T02:54:00.907Z,6.97
2019-05-03T02:56:30.384Z,7.23
2019-05-03T02:58:59.938Z,7.40
2019-05-03T03:01:30.443Z,7.87
2019-05-03T03:04:01.018Z,6.70
2019-05-03T03:06:32.385Z,7.23
2019-05-03T03:09:05.500Z,7.20
2019-05-03T03:11:38.863Z,7.40
2019-05-03T03:14:12.430Z,6.80
2019-05-03T03:16:45.872Z,7.47
2019-05-03T03:19:17.730Z,6.93
2019-05-03T03:21:50.569Z,7.17
2019-05-03T03:24:27.246Z,8.23
2019-05-03T03:26:59.732Z,7.97
2019-05-03T03:29:29.456Z,7.63
2019-05-03T03:32:18.523Z,8.50
2019-05-03T03:35:01.823Z,8.33
2019-05-03T03:37:26.837Z,7.63
2019-05-03T03:39:56.510Z,8.23
2019-05-03T03:42:26.187Z,9.17
2019-05-03T03:44:58.106Z,8.70
2019-05-03T03:47:32.178Z,8.97
2019-05-03T03:50:05.906Z,9.00
2019-05-03T03:52:36.803Z,8.27
2019-05-03T03:55:07.082Z,9.07
2019-05-03T03:57:36.971Z,9.10
2019-05-03T04:00:08.834Z,9.23
2019-05-03T04:02:39.818Z,9.53
2019-05-03T04:05:10.432Z,9.13
2019-05-03T04:07:40.315Z,9.50
2019-05-03T04:10:10.704Z,9.87
2019-05-03T04:12:42.053Z,9.67
2019-05-03T04:15:29.635Z,9.57
2019-05-03T04:18:10.735Z,10.13
2019-05-03T04:20:40.262Z,9.60
2019-05-03T04:23:09.796Z,10.33
2019-05-03T04:25:40.262Z,10.53
2019-05-03T04:28:10.222Z,10.03
2019-05-03T04:30:39.862Z,9.87
2019-05-03T04:33:09.394Z,10.23
2019-05-03T04:35:39.017Z,9.67
2019-05-03T04:38:08.474Z,10.50
2019-05-03T04:40:37.919Z,9.53
2019-05-03T04:43:07.432Z,9.93
2019-05-03T04:45:37.011Z,9.50
2019-05-03T04:48:07.065Z,9.77
2019-05-03T04:50:37.121Z,9.53
2019-05-03T04:53:07.096Z,9.33
2019-05-03T04:55:36.727Z,9.50
2019-05-03T04:58:06.201Z,9.83
2019-05-03T05:00:36.090Z,9.63
2019-05-03T05:03:06.264Z,9.60
2019-05-03T05:05:36.389Z,11.13
2019-05-03T05:08:06.304Z,9.33
2019-05-03T05:10:36.420Z,10.33
2019-05-03T05:13:06.156Z,10.10
2019-05-03T05:15:35.705Z,10.70
2019-05-03T05:18:07.514Z,10.03
2019-05-03T05:20:41.329Z,10.27
2019-05-03T05:23:10.749Z,9.73
2019-05-03T05:25:41.905Z,10.40
2019-05-03T05:28:14.889Z,10.20
2019-05-03T05:30:54.602Z,10.53
2019-05-03T05:33:25.225Z,10.57
2019-05-03T05:35:54.880Z,10.40
2019-05-03T05:38:25.563Z,9.57
2019-05-03T05:40:55.622Z,9.50
2019-05-03T05:43:25.621Z,9.70
2019-05-03T05:45:58.654Z,9.23
2019-05-03T05:48:31.290Z,8.17
2019-05-03T05:51:00.742Z,8.50
2019-05-03T05:53:30.217Z,8.53
2019-05-03T05:56:05.036Z,8.23
2019-05-03T05:58:38.848Z,8.00
2019-05-03T06:01:09.961Z,7.40
2019-05-03T06:03:39.416Z,7.70
2019-05-03T06:06:10.587Z,6.60
2019-05-03T06:08:47.303Z,6.90
2019-05-03T06:11:21.187Z,6.70
2019-05-03T06:13:52.265Z,7.57
2019-05-03T06:16:24.557Z,6.70
2019-05-03T06:18:55.792Z,6.83
2019-05-03T06:21:26.901Z,7.00
2019-05-03T06:24:00.684Z,6.77
2019-05-03T06:26:48.214Z,6.00
2019-05-03T06:29:17.672Z,6.63
2019-05-03T06:32:06.896Z,5.80
2019-05-03T06:34:36.712Z,5.90
2019-05-03T06:37:16.844Z,5.47
2019-05-03T06:39:46.287Z,6.17
2019-05-03T06:42:19.152Z,6.00
2019-05-03T06:44:46.980Z,4.83
2019-05-03T06:47:16.380Z,4.83
2019-05-03T06:49:48.414Z,4.80
2019-05-03T06:52:19.648Z,5.00
2019-05-03T06:54:48.083Z,4.27
2019-05-03T06:57:19.280Z,4.43
2019-05-03T06:59:50.363Z,4.53
2019-05-03T07:02:30.287Z,4.53
2019-05-03T07:05:01.362Z,5.20
2019-05-03T07:07:41.683Z,3.63
2019-05-03T07:10:25.022Z,3.50
2019-05-03T07:13:01.622Z,3.33
2019-05-03T07:15:31.216Z,4.07
2019-05-03T07:18:00.715Z,4.00
2019-05-03T07:20:31.787Z,3.70
2019-05-03T07:23:01.259Z,4.00
2019-05-03T07:25:30.668Z,3.60
2019-05-03T07:28:00.087Z,3.50
2019-05-03T07:30:29.518Z,4.10
2019-05-03T07:33:00.593Z,3.70
2019-05-03T07:35:30.041Z,3.60
2019-05-03T07:37:59.471Z,3.90
2019-05-03T07:40:28.946Z,3.30
2019-05-03T07:42:58.376Z,3.90
2019-05-03T07:45:27.867Z,3.90
2019-05-03T07:47:57.305Z,3.80
2019-05-03T07:50:26.717Z,3.90
2019-05-03T07:52:56.134Z,3.90
2019-05-03T07:55:45.692Z,3.87
2019-05-03T07:58:25.385Z,3.80
2019-05-03T08:01:06.084Z,3.50
2019-05-03T08:03:30.295Z,3.47
2019-05-03T08:05:59.879Z,3.43
2019-05-03T08:08:29.372Z,3.40
2019-05-03T08:10:58.978Z,3.00
2019-05-03T08:13:28.452Z,3.50
2019-05-03T08:15:57.928Z,3.43
2019-05-03T08:18:27.358Z,2.77
2019-05-03T08:20:56.763Z,3.10
2019-05-03T08:23:29.875Z,3.20
2019-05-03T08:25:57.344Z,3.17
2019-05-03T08:28:26.761Z,3.30
2019-05-03T08:30:57.821Z,3.33
2019-05-03T08:33:38.114Z,3.17
2019-05-03T08:36:07.596Z,2.77
2019-05-03T08:38:37.027Z,3.00
2019-05-03T08:41:08.105Z,3.40
2019-05-03T08:43:37.591Z,2.83
2019-05-03T08:46:07.006Z,3.23
2019-05-03T08:48:36.449Z,2.80
2019-05-03T08:51:06.032Z,2.90
2019-05-03T08:53:35.943Z,3.13
2019-05-03T08:56:05.598Z,2.87
2019-05-03T08:58:35.007Z,2.77
2019-05-03T09:01:05.691Z,3.17
2019-05-03T09:03:38.234Z,3.07
2019-05-03T09:06:06.788Z,2.80
2019-05-03T09:08:36.189Z,3.10
2019-05-03T09:11:10.172Z,2.60
2019-05-03T09:13:45.034Z,2.70
2019-05-03T09:16:14.856Z,2.40
2019-05-03T09:18:45.417Z,2.23
2019-05-03T09:21:14.975Z,2.73
2019-05-03T09:23:45.032Z,2.23
2019-05-03T09:26:15.242Z,2.87
2019-05-03T09:28:45.511Z,2.43
2019-05-03T09:31:15.643Z,2.60
2019-05-03T09:33:45.388Z,2.50
2019-05-03T09:36:14.954Z,2.60
2019-05-03T09:38:45.810Z,2.43
2019-05-03T09:41:15.447Z,2.57
2019-05-03T09:43:45.237Z,2.30
2019-05-03T09:46:14.830Z,2.60
2019-05-03T09:48:45.330Z,2.60
2019-05-03T09:51:15.106Z,2.53
2019-05-03T09:53:46.205Z,3.03
2019-05-03T09:56:16.379Z,2.60
2019-05-03T09:58:46.204Z,2.60
2019-05-03T10:01:15.705Z,2.80
2019-05-03T10:03:45.317Z,3.00
2019-05-03T10:06:17.453Z,2.67
2019-05-03T10:08:46.046Z,2.70
2019-05-03T10:11:15.846Z,2.90
2019-05-03T10:13:48.337Z,3.00
2019-05-03T10:16:16.604Z,2.83
2019-05-03T10:18:46.253Z,3.30
2019-05-03T10:21:15.826Z,2.87
2019-05-03T10:23:45.514Z,2.97
2019-05-03T10:26:15.287Z,2.90
2019-05-03T10:28:44.796Z,2.80
2019-05-03T10:31:14.687Z,2.70
2019-05-03T10:33:48.670Z,3.20
2019-05-03T10:36:18.082Z,3.10
2019-05-03T10:38:47.504Z,3.03
2019-05-03T10:41:17.043Z,3.20
2019-05-03T10:43:46.446Z,2.97
2019-05-03T10:46:16.149Z,2.73
2019-05-03T10:48:45.783Z,3.10
2019-05-03T10:51:15.926Z,2.97
2019-05-03T10:53:47.295Z,3.03
2019-05-03T10:56:24.524Z,3.30
2019-05-03T10:58:59.679Z,3.30
2019-05-03T11:01:35.719Z,3.23
2019-05-03T11:04:05.578Z,3.47
2019-05-03T11:06:35.470Z,3.43
2019-05-03T11:09:06.508Z,3.50
2019-05-03T11:11:36.012Z,3.30
2019-05-03T11:14:05.780Z,3.37
2019-05-03T11:16:35.375Z,3.30
2019-05-03T11:19:05.482Z,3.13
2019-05-03T11:21:35.111Z,3.27
2019-05-03T11:24:04.563Z,3.40
2019-05-03T11:26:34.946Z,3.23
2019-05-03T11:29:05.287Z,3.10
2019-05-03T11:31:45.611Z,2.90
2019-05-03T11:34:16.646Z,2.87
2019-05-03T11:36:54.898Z,3.00
2019-05-03T11:39:25.084Z,3.27
2019-05-03T11:41:58.979Z,2.83
2019-05-03T11:44:40.214Z,2.97
2019-05-03T11:47:09.824Z,2.87
2019-05-03T11:49:39.300Z,2.80
2019-05-03T11:52:08.909Z,3.00
2019-05-03T11:54:38.357Z,3.00
2019-05-03T11:57:09.412Z,2.67
2019-05-03T11:59:38.840Z,3.03
2019-05-03T12:02:26.215Z,3.33
2019-05-03T12:04:55.986Z,3.10
2019-05-03T12:07:40.016Z,3.00
2019-05-03T12:10:16.395Z,2.77
2019-05-03T12:12:44.039Z,3.07
2019-05-03T12:15:15.185Z,3.33
2019-05-03T12:17:54.243Z,3.40
2019-05-03T12:20:19.338Z,3.50
2019-05-03T12:22:49.696Z,3.30
2019-05-03T12:25:20.320Z,3.20
2019-05-03T12:27:50.158Z,3.70
2019-05-03T12:30:20.080Z,3.33
2019-05-03T12:32:49.584Z,3.50
2019-05-03T12:35:18.899Z,3.40
2019-05-03T12:37:48.499Z,3.40
2019-05-03T12:40:17.985Z,3.47
2019-05-03T12:42:47.470Z,3.40
2019-05-03T12:45:16.996Z,3.60
2019-05-03T12:47:46.390Z,3.70
2019-05-03T12:50:16.418Z,3.23
2019-05-03T12:52:50.520Z,3.90
2019-05-03T12:55:17.064Z,3.63
2019-05-03T12:57:46.470Z,3.40
2019-05-03T13:00:25.126Z,3.23
2019-05-03T13:03:11.457Z,3.23
2019-05-03T13:05:40.899Z,3.90
2019-05-03T13:08:39.687Z,3.20
2019-05-03T13:11:09.513Z,3.27
2019-05-03T13:13:39.219Z,3.23
2019-05-03T13:16:10.503Z,3.13
2019-05-03T13:18:39.957Z,3.10
2019-05-03T13:21:09.546Z,3.10
2019-05-03T13:23:39.002Z,3.00
2019-05-03T13:26:08.557Z,2.97
2019-05-03T13:28:38.037Z,3.50
2019-05-03T13:31:07.569Z,2.93
2019-05-03T13:33:37.206Z,3.20
2019-05-03T13:36:06.823Z,3.60
2019-05-03T13:38:36.344Z,3.00
2019-05-03T13:41:06.664Z,3.03
2019-05-03T13:43:36.368Z,3.00
2019-05-03T13:46:05.925Z,3.00
2019-05-03T13:48:44.877Z,3.10
2019-05-03T13:51:06.753Z,3.10
2019-05-03T13:53:36.200Z,2.90
2019-05-03T13:56:06.082Z,3.10
2019-05-03T13:58:36.046Z,3.30
2019-05-03T14:01:05.907Z,3.30
2019-05-03T14:03:35.997Z,3.50
2019-05-03T14:06:08.380Z,3.50
2019-05-03T14:08:36.749Z,3.43
2019-05-03T14:11:06.522Z,3.33
2019-05-03T14:13:36.122Z,3.50
2019-05-03T14:16:06.430Z,3.50
2019-05-03T14:18:36.281Z,3.90
2019-05-03T14:24:09.801Z,3.60
2019-05-03T14:26:40.778Z,3.70
2019-05-03T14:29:10.822Z,3.53
2019-05-03T14:31:40.249Z,3.83
2019-05-03T14:34:09.686Z,4.07
2019-05-03T14:36:39.089Z,3.87
2019-05-03T14:39:10.244Z,4.17
2019-05-03T14:41:40.663Z,3.67
2019-05-03T14:44:10.091Z,4.07
2019-05-03T14:46:39.770Z,3.67
2019-05-03T14:49:09.273Z,4.03
2019-05-03T14:51:38.771Z,3.93
2019-05-03T14:54:09.361Z,4.00
2019-05-03T14:56:40.449Z,4.23
2019-05-03T14:59:27.777Z,4.17
2019-05-03T15:02:08.039Z,4.13
2019-05-03T15:04:37.469Z,4.10
2019-05-03T15:07:06.997Z,4.13
2019-05-03T15:09:36.457Z,4.27
2019-05-03T15:12:06.251Z,4.20
2019-05-03T15:14:35.781Z,4.00
2019-05-03T15:17:05.528Z,4.30
2019-05-03T15:19:35.322Z,4.17
2019-05-03T15:22:05.602Z,4.40
2019-05-03T15:24:35.434Z,3.93
2019-05-03T15:27:05.085Z,4.50
2019-05-03T15:29:35.499Z,4.43
2019-05-03T15:32:05.367Z,4.37
2019-05-03T15:34:35.565Z,4.20
2019-05-03T15:37:05.743Z,4.53
2019-05-03T15:39:35.524Z,4.53
2019-05-03T15:42:05.499Z,4.63
2019-05-03T15:44:51.698Z,4.40
2019-05-03T15:47:31.632Z,4.60
2019-05-03T15:50:01.237Z,5.20
2019-05-03T15:52:30.686Z,4.60
2019-05-03T15:55:00.240Z,4.63
2019-05-03T15:57:29.732Z,4.87
2019-05-03T15:59:59.196Z,4.80
2019-05-03T16:02:28.603Z,4.40
2019-05-03T16:04:58.802Z,4.67
2019-05-03T16:07:28.523Z,4.70
2019-05-03T16:09:58.014Z,4.60
2019-05-03T16:12:27.511Z,4.77
2019-05-03T16:14:56.955Z,4.50
2019-05-03T16:17:26.420Z,4.20
2019-05-03T16:19:55.892Z,4.40
2019-05-03T16:22:25.419Z,4.20
2019-05-03T16:24:55.686Z,4.30
2019-05-03T16:27:30.159Z,4.93
2019-05-03T16:30:00.409Z,4.23
2019-05-03T16:32:29.862Z,3.87
2019-05-03T16:34:59.348Z,4.13
2019-05-03T16:37:29.083Z,4.20
2019-05-03T16:39:58.685Z,4.37
2019-05-03T16:42:28.297Z,4.27
2019-05-03T16:44:57.882Z,4.17
2019-05-03T16:47:27.398Z,4.50
2019-05-03T16:49:56.952Z,5.20
2019-05-03T16:52:26.492Z,4.50
2019-05-03T16:54:56.243Z,4.50
2019-05-03T16:57:25.708Z,4.20
2019-05-03T16:59:55.186Z,4.63
2019-05-03T17:02:24.756Z,4.27
2019-05-03T17:05:01.776Z,4.53
2019-05-03T17:07:32.905Z,5.10
2019-05-03T17:10:04.866Z,5.03
2019-05-03T17:12:37.575Z,4.87
2019-05-03T17:15:11.004Z,5.37
2019-05-03T17:17:40.482Z,5.70
2019-05-03T17:20:10.871Z,5.03
2019-05-03T17:22:40.366Z,5.70
2019-05-03T17:25:10.032Z,5.83
2019-05-03T17:27:39.464Z,5.83
2019-05-03T17:30:09.992Z,6.30
2019-05-03T17:32:39.471Z,6.40
2019-05-03T17:35:09.227Z,6.07
2019-05-03T17:37:38.784Z,6.40
2019-05-03T17:40:10.317Z,6.80
2019-05-03T17:42:54.695Z,6.47
2019-05-03T17:45:26.057Z,6.40
2019-05-03T17:47:55.584Z,6.70
2019-05-03T17:50:25.160Z,6.33
2019-05-03T17:53:14.620Z,6.67
2019-05-03T17:56:01.784Z,6.53
2019-05-03T17:58:48.928Z,6.50
2019-05-03T18:01:22.866Z,7.87
2019-05-03T18:04:03.907Z,7.43
2019-05-03T18:06:26.871Z,7.73
2019-05-03T18:08:57.960Z,8.30
2019-05-03T18:11:34.774Z,7.53
2019-05-03T18:14:05.558Z,7.37
2019-05-03T18:16:35.113Z,6.30
2019-05-03T18:19:05.200Z,7.40
2019-05-03T18:21:35.497Z,7.50
2019-05-03T18:24:05.331Z,7.20
2019-05-03T18:26:35.530Z,7.57
2019-05-03T18:29:05.835Z,8.13
2019-05-03T18:31:35.373Z,7.50
2019-05-03T18:34:06.353Z,7.90
2019-05-03T18:36:36.077Z,8.10
2019-05-03T18:39:08.347Z,7.43
2019-05-03T18:41:37.842Z,7.77
2019-05-03T18:44:09.027Z,8.00
2019-05-03T18:46:40.103Z,8.13
2019-05-03T18:49:09.610Z,8.23
2019-05-03T18:51:39.149Z,7.57
2019-05-03T18:54:08.757Z,7.60
2019-05-03T18:56:38.258Z,7.93
2019-05-03T18:59:07.797Z,8.23
2019-05-03T19:01:37.271Z,8.07
2019-05-03T19:04:14.671Z,7.03
2019-05-03T19:06:45.175Z,7.33
2019-05-03T19:09:34.521Z,6.67
2019-05-03T19:12:12.293Z,7.33
2019-05-03T19:14:41.899Z,7.40
2019-05-03T19:17:21.983Z,7.13
2019-05-03T19:19:56.274Z,6.73
2019-05-03T19:22:25.944Z,7.80
2019-05-03T19:24:55.448Z,7.43
2019-05-03T19:27:25.249Z,7.93
2019-05-03T19:29:55.483Z,6.97
2019-05-03T19:32:28.198Z,6.43
2019-05-03T19:34:56.330Z,6.70
2019-05-03T19:37:25.974Z,6.17
2019-05-03T19:39:55.435Z,5.83
2019-05-03T19:42:27.400Z,5.20
2019-05-03T19:44:56.006Z,5.27
2019-05-03T19:47:25.481Z,5.67
2019-05-03T19:49:54.937Z,5.23
2019-05-03T19:52:26.201Z,4.87
2019-05-03T19:54:55.672Z,4.93
2019-05-03T19:57:35.706Z,4.90
2019-05-03T20:00:08.441Z,4.80
2019-05-03T20:02:39.523Z,4.27
2019-05-03T20:05:28.809Z,4.53
2019-05-03T20:08:15.421Z,4.43
2019-05-03T20:10:46.588Z,4.40
2019-05-03T20:13:16.195Z,5.13
2019-05-03T20:15:45.668Z,5.23
2019-05-03T20:18:17.769Z,5.20
2019-05-03T20:20:46.415Z,5.20
2019-05-03T20:23:15.848Z,4.80
2019-05-03T20:25:45.277Z,5.27
2019-05-03T20:28:15.830Z,5.40
2019-05-03T20:30:45.331Z,5.83
2019-05-03T20:33:14.772Z,5.70
2019-05-03T20:35:45.172Z,5.50
2019-05-03T20:38:15.234Z,5.67
2019-05-03T20:40:45.109Z,6.07
2019-05-03T20:43:16.311Z,5.50
2019-05-03T20:46:02.447Z,6.23
2019-05-03T20:48:31.965Z,6.90
2019-05-03T20:51:01.401Z,7.20
2019-05-03T20:53:31.171Z,6.73
2019-05-03T20:56:00.694Z,7.13
2019-05-03T20:58:30.127Z,7.23
2019-05-03T21:00:59.583Z,6.30
2019-05-03T21:03:29.048Z,6.07
2019-05-03T21:05:58.484Z,5.57
2019-05-03T21:08:27.935Z,5.00
2019-05-03T21:10:57.418Z,5.00
2019-05-03T21:13:39.272Z,4.87
2019-05-03T21:15:59.771Z,5.20
2019-05-03T21:18:36.842Z,5.87
2019-05-03T21:21:20.639Z,5.07
2019-05-03T21:23:57.495Z,4.87
2019-05-03T21:26:26.976Z,5.17
2019-05-03T21:28:56.444Z,4.60
2019-05-03T21:31:25.919Z,5.17
2019-05-03T21:33:55.504Z,4.73
2019-05-03T21:36:25.469Z,4.70
2019-05-03T21:38:55.063Z,4.70
2019-05-03T21:41:27.374Z,5.13
2019-05-03T21:43:56.811Z,4.77
2019-05-03T21:46:30.652Z,5.30
2019-05-03T21:49:01.782Z,5.33
2019-05-03T21:51:31.249Z,5.33
2019-05-03T21:54:00.701Z,5.57
2019-05-03T21:56:30.195Z,5.03
2019-05-03T21:58:59.616Z,6.10
2019-05-03T22:01:29.483Z,5.50
2019-05-03T22:03:58.936Z,5.33
2019-05-03T22:06:28.362Z,5.90
2019-05-03T22:08:58.425Z,5.17
2019-05-03T22:11:28.001Z,5.50
2019-05-03T22:14:01.446Z,5.50
2019-05-03T22:16:31.884Z,6.20
2019-05-03T22:19:01.406Z,5.87
2019-05-03T22:21:34.686Z,5.90
2019-05-03T22:24:05.342Z,5.57
2019-05-03T22:26:54.848Z,5.40
2019-05-03T22:29:25.439Z,5.23
2019-05-03T22:31:55.104Z,5.20
2019-05-03T22:34:25.818Z,5.70
2019-05-03T22:36:55.510Z,5.60
2019-05-03T22:39:25.268Z,5.43
2019-05-03T22:41:54.849Z,5.13
2019-05-03T22:44:25.290Z,4.90
2019-05-03T22:46:55.238Z,5.07
2019-05-03T22:49:26.022Z,4.87
2019-05-03T22:51:55.659Z,5.13
2019-05-03T22:54:25.156Z,4.90
2019-05-03T22:56:55.456Z,4.60
2019-05-03T22:59:26.789Z,4.70
2019-05-03T23:01:56.213Z,4.57
2019-05-03T23:04:25.653Z,4.50
2019-05-03T23:06:55.693Z,4.90
2019-05-03T23:09:25.217Z,4.77
2019-05-03T23:11:55.168Z,4.57
2019-05-03T23:14:25.713Z,3.93
2019-05-03T23:16:55.165Z,4.00
2019-05-03T23:19:24.613Z,4.07
2019-05-03T23:22:01.730Z,3.20
2019-05-03T23:24:31.175Z,3.37
2019-05-03T23:27:00.780Z,2.80
2019-05-03T23:29:30.312Z,3.00
2019-05-03T23:31:59.719Z,2.70
2019-05-03T23:34:29.156Z,2.90
2019-05-03T23:36:58.599Z,2.90
2019-05-03T23:39:28.067Z,3.30
2019-05-03T23:41:57.551Z,2.93
2019-05-03T23:44:27.020Z,3.27
2019-05-03T23:47:00.984Z,3.03
2019-05-03T23:49:30.433Z,3.00
2019-05-03T23:52:01.630Z,3.23
2019-05-03T23:54:31.130Z,2.90
2019-05-03T23:57:00.542Z,3.40
2019-05-03T23:59:30.009Z,3.20
